createdAt,value
2022-10-05T00:00:15.707Z,6.01
2022-10-05T00:02:44.165Z,5.96
2022-10-05T00:05:21.393Z,5.92
2022-10-05T00:07:49.673Z,5.81
2022-10-05T00:10:21.074Z,5.83
2022-10-05T00:12:49.936Z,5.81
2022-10-05T00:15:20.612Z,5.76
2022-10-05T00:17:48.771Z,5.73
2022-10-05T00:20:24.059Z,5.71
2022-10-05T00:22:57.988Z,5.64
2022-10-05T00:25:27.743Z,5.65
2022-10-05T00:27:57.981Z,5.60
2022-10-05T00:30:27.867Z,5.58
2022-10-05T00:32:59.476Z,5.57
2022-10-05T00:35:29.535Z,5.59
2022-10-05T00:37:57.840Z,5.65
2022-10-05T00:40:45.535Z,5.64
2022-10-05T00:43:30.136Z,5.56
2022-10-05T00:46:07.883Z,5.52
2022-10-05T00:48:47.337Z,5.52
2022-10-05T00:51:23.970Z,5.58
2022-10-05T00:54:03.145Z,5.50
2022-10-05T00:56:50.724Z,5.42
2022-10-05T00:59:31.190Z,5.38
2022-10-05T01:02:06.369Z,5.34
2022-10-05T01:04:43.133Z,5.28
2022-10-05T01:07:22.373Z,5.29
2022-10-05T01:09:56.754Z,5.23
2022-10-05T01:12:33.281Z,5.18
2022-10-05T01:15:06.616Z,5.22
2022-10-05T01:17:41.998Z,5.23
2022-10-05T01:20:33.423Z,5.35
2022-10-05T01:23:47.442Z,5.30
2022-10-05T01:26:37.349Z,5.24
2022-10-05T01:29:12.540Z,5.23
2022-10-05T01:31:47.008Z,5.28
2022-10-05T01:34:21.067Z,5.25
2022-10-05T01:36:58.564Z,5.20
2022-10-05T01:39:34.445Z,5.15
2022-10-05T01:42:10.375Z,5.07
2022-10-05T01:44:47.339Z,5.00
2022-10-05T01:47:21.856Z,5.02
2022-10-05T01:49:58.181Z,4.95
2022-10-05T01:52:34.373Z,4.87
2022-10-05T01:55:14.790Z,4.78
2022-10-05T01:57:52.854Z,4.72
2022-10-05T02:00:22.613Z,4.71
2022-10-05T02:02:57.419Z,4.79
2022-10-05T02:05:31.350Z,4.92
2022-10-05T02:08:03.248Z,4.94
2022-10-05T02:10:36.622Z,4.93
2022-10-05T02:13:10.954Z,4.90
2022-10-05T02:15:45.952Z,4.90
2022-10-05T02:18:21.031Z,4.89
2022-10-05T02:20:51.121Z,4.83
2022-10-05T02:23:22.325Z,4.78
2022-10-05T02:25:53.627Z,4.73
2022-10-05T02:28:26.258Z,4.64
2022-10-05T02:31:01.970Z,4.55
2022-10-05T02:33:32.510Z,4.50
2022-10-05T02:36:03.485Z,4.50
2022-10-05T02:38:41.081Z,4.43
2022-10-05T02:41:19.733Z,4.44
2022-10-05T02:43:54.682Z,4.46
2022-10-05T02:46:33.707Z,4.38
2022-10-05T02:49:15.781Z,4.46
2022-10-05T02:51:52.288Z,4.46
2022-10-05T02:54:32.879Z,4.44
2022-10-05T02:57:06.060Z,4.47
2022-10-05T02:59:40.197Z,4.50
2022-10-05T03:02:16.291Z,4.53
2022-10-05T03:04:51.383Z,4.62
2022-10-05T03:07:24.911Z,4.67
2022-10-05T03:10:01.423Z,4.71
2022-10-05T03:12:47.480Z,4.74
2022-10-05T03:15:28.777Z,4.75
2022-10-05T03:18:06.237Z,4.82
2022-10-05T03:20:42.238Z,4.79
2022-10-05T03:23:15.367Z,4.77
2022-10-05T03:26:10.463Z,4.78
2022-10-05T03:28:49.618Z,4.75
2022-10-05T03:31:24.945Z,4.77
2022-10-05T03:34:01.077Z,4.69
2022-10-05T03:36:39.690Z,4.67
2022-10-05T03:39:14.077Z,4.64
2022-10-05T03:41:45.880Z,4.61
2022-10-05T03:44:37.891Z,4.55
2022-10-05T03:47:12.805Z,4.49
2022-10-05T03:49:53.118Z,4.53
2022-10-05T03:52:25.683Z,4.50
2022-10-05T03:55:01.106Z,4.48
2022-10-05T03:57:33.165Z,4.51
2022-10-05T04:00:06.040Z,4.53
2022-10-05T04:02:38.269Z,4.63
2022-10-05T04:05:17.233Z,4.69
2022-10-05T04:07:51.079Z,4.74
2022-10-05T04:10:23.218Z,4.81
2022-10-05T04:12:59.426Z,4.83
2022-10-05T04:15:33.940Z,4.82
2022-10-05T04:18:08.016Z,4.77
2022-10-05T04:20:45.172Z,4.66
2022-10-05T04:23:22.546Z,4.56
2022-10-05T04:25:52.990Z,4.45
2022-10-05T04:28:32.024Z,4.37
2022-10-05T04:31:04.911Z,4.30
2022-10-05T04:33:33.377Z,4.23
2022-10-05T04:36:23.400Z,4.16
2022-10-05T04:39:06.083Z,4.15
2022-10-05T04:41:58.228Z,4.06
2022-10-05T04:44:41.475Z,4.14
2022-10-05T04:47:23.743Z,4.06
2022-10-05T04:50:15.196Z,4.06
2022-10-05T04:52:52.402Z,4.06
2022-10-05T04:55:29.621Z,4.10
2022-10-05T04:58:05.367Z,4.15
2022-10-05T05:00:47.896Z,4.21
2022-10-05T05:03:44.008Z,4.30
2022-10-05T05:06:25.836Z,4.44
2022-10-05T05:09:22.264Z,4.66
2022-10-05T05:12:05.024Z,4.71
2022-10-05T05:14:48.378Z,4.79
2022-10-05T05:17:29.688Z,4.90
2022-10-05T05:20:09.003Z,4.96
2022-10-05T05:22:46.790Z,5.02
2022-10-05T05:25:32.754Z,5.10
2022-10-05T05:28:12.748Z,5.11
2022-10-05T05:30:47.519Z,5.15
2022-10-05T05:33:21.685Z,5.16
2022-10-05T05:36:13.453Z,5.25
2022-10-05T05:38:48.250Z,5.41
2022-10-05T05:41:25.119Z,5.60
2022-10-05T05:44:05.980Z,5.83
2022-10-05T05:47:02.355Z,5.99
2022-10-05T05:49:48.228Z,6.21
2022-10-05T05:52:23.514Z,6.44
2022-10-05T05:54:58.745Z,6.64
2022-10-05T05:57:33.586Z,6.77
2022-10-05T06:00:09.019Z,6.95
2022-10-05T06:02:43.212Z,7.08
2022-10-05T06:05:25.766Z,7.25
2022-10-05T06:07:57.013Z,7.44
2022-10-05T06:10:30.591Z,7.68
2022-10-05T06:13:07.570Z,7.91
2022-10-05T06:15:41.441Z,8.18
2022-10-05T06:18:13.175Z,8.30
2022-10-05T06:20:45.664Z,8.47
2022-10-05T06:23:18.584Z,8.59
2022-10-05T06:26:00.681Z,8.76
2022-10-05T06:28:31.060Z,8.96
2022-10-05T06:31:13.675Z,9.12
2022-10-05T06:33:49.390Z,9.29
2022-10-05T06:36:35.727Z,9.39
2022-10-05T06:39:27.217Z,9.40
2022-10-05T06:42:13.833Z,9.51
2022-10-05T06:44:53.564Z,9.55
2022-10-05T06:47:30.836Z,9.66
2022-10-05T06:50:10.550Z,9.79
2022-10-05T06:52:49.869Z,9.68
2022-10-05T06:55:25.582Z,9.79
2022-10-05T06:58:14.869Z,9.90
2022-10-05T07:00:50.877Z,9.99
2022-10-05T07:03:29.038Z,10.18
2022-10-05T07:06:11.218Z,10.45
2022-10-05T07:09:05.190Z,10.69
2022-10-05T07:11:57.378Z,10.91
2022-10-05T07:14:41.690Z,11.09
2022-10-05T07:17:26.644Z,11.13
2022-10-05T07:20:04.512Z,11.08
2022-10-05T07:23:16.496Z,11.15
2022-10-05T07:25:51.309Z,11.23
2022-10-05T07:28:30.013Z,11.40
2022-10-05T07:31:06.534Z,11.54
2022-10-05T07:33:42.962Z,11.71
2022-10-05T07:36:35.150Z,11.72
2022-10-05T07:39:06.401Z,11.85
2022-10-05T07:41:40.307Z,11.88
2022-10-05T07:44:16.341Z,12.07
2022-10-05T07:46:52.859Z,12.24
2022-10-05T07:49:34.353Z,12.35
2022-10-05T07:52:06.765Z,12.46
2022-10-05T07:54:47.019Z,12.64
2022-10-05T07:57:22.617Z,12.76
2022-10-05T07:59:57.174Z,12.85
2022-10-05T08:02:29.620Z,12.86
2022-10-05T08:05:04.245Z,12.87
2022-10-05T08:07:36.094Z,12.82
2022-10-05T08:10:17.939Z,12.98
2022-10-05T08:13:00.288Z,12.99
2022-10-05T08:15:34.557Z,13.22
2022-10-05T08:18:06.455Z,13.38
2022-10-05T08:20:45.818Z,13.61
2022-10-05T08:23:23.712Z,13.84
2022-10-05T08:26:03.590Z,14.06
2022-10-05T08:28:37.885Z,14.12
2022-10-05T08:31:19.027Z,14.22
2022-10-05T08:33:59.836Z,14.49
2022-10-05T08:36:49.217Z,14.69
2022-10-05T08:39:22.513Z,14.95
2022-10-05T08:42:32.947Z,15.02
2022-10-05T08:45:25.706Z,15.16
2022-10-05T08:48:23.111Z,15.11
2022-10-05T08:51:16.945Z,15.15
2022-10-05T08:54:20.703Z,15.16
2022-10-05T08:56:56.031Z,15.08
2022-10-05T08:59:44.416Z,14.87
2022-10-05T09:02:24.665Z,14.69
2022-10-05T09:05:20.207Z,14.89
2022-10-05T09:08:20.815Z,15.17
2022-10-05T09:11:08.318Z,15.42
2022-10-05T09:14:14.374Z,15.63
2022-10-05T09:16:52.514Z,15.89
2022-10-05T09:20:11.939Z,16.04
2022-10-05T09:22:59.155Z,16.16
2022-10-05T09:25:42.358Z,16.22
2022-10-05T09:28:25.719Z,16.44
2022-10-05T09:31:14.081Z,16.70
2022-10-05T09:34:07.875Z,16.87
2022-10-05T09:37:20.270Z,17.12
2022-10-05T09:40:22.510Z,17.25
2022-10-05T09:43:16.983Z,17.22
2022-10-05T09:46:25.301Z,17.57
2022-10-05T09:49:17.196Z,17.79
2022-10-05T09:52:16.450Z,17.63
2022-10-05T09:55:21.955Z,17.80
2022-10-05T09:58:38.203Z,17.49
2022-10-05T10:01:34.276Z,17.32
2022-10-05T10:04:25.062Z,17.12
2022-10-05T10:07:29.508Z,17.02
2022-10-05T10:10:21.059Z,17.12
2022-10-05T10:13:04.488Z,17.39
2022-10-05T10:15:50.074Z,17.58
2022-10-05T10:19:03.230Z,17.74
2022-10-05T10:21:52.564Z,17.87
2022-10-05T10:24:47.031Z,18.18
2022-10-05T10:27:34.218Z,18.46
2022-10-05T10:30:30.162Z,18.71
2022-10-05T10:33:40.480Z,18.88
2022-10-05T10:36:14.949Z,18.66
2022-10-05T10:38:59.823Z,18.74
2022-10-05T10:41:56.502Z,18.68
2022-10-05T10:44:59.282Z,18.43
2022-10-05T10:47:41.495Z,18.34
2022-10-05T10:50:55.462Z,18.41
2022-10-05T10:54:12.547Z,18.42
2022-10-05T10:56:55.186Z,18.57
2022-10-05T10:59:47.075Z,18.59
2022-10-05T11:02:40.173Z,18.30
2022-10-05T11:05:43.030Z,18.12
2022-10-05T11:08:47.594Z,18.16
2022-10-05T11:11:53.626Z,18.08
2022-10-05T11:14:47.541Z,18.22
2022-10-05T11:17:31.885Z,18.46
2022-10-05T11:20:15.883Z,18.40
2022-10-05T11:23:02.428Z,18.51
2022-10-05T11:25:47.782Z,18.49
2022-10-05T11:28:50.016Z,18.50
2022-10-05T11:31:39.216Z,18.52
2022-10-05T11:34:49.145Z,18.45
2022-10-05T11:37:45.339Z,18.60
2022-10-05T11:40:39.474Z,18.71
2022-10-05T11:43:41.873Z,18.78
2022-10-05T11:46:15.260Z,18.74
2022-10-05T11:48:57.625Z,18.76
2022-10-05T11:51:35.327Z,18.92
2022-10-05T11:55:05.984Z,18.88
2022-10-05T11:57:33.835Z,19.10
2022-10-05T12:00:13.011Z,19.18
2022-10-05T12:03:31.773Z,19.42
2022-10-05T12:06:32.261Z,19.54
2022-10-05T12:09:16.279Z,19.35
2022-10-05T12:12:06.121Z,19.43
2022-10-05T12:14:44.341Z,19.56
2022-10-05T12:17:19.968Z,19.62
2022-10-05T12:19:54.696Z,19.58
2022-10-05T12:22:26.936Z,19.55
2022-10-05T12:25:21.745Z,19.51
2022-10-05T12:27:52.449Z,19.47
2022-10-05T12:30:27.924Z,19.46
2022-10-05T12:33:04.887Z,19.61
2022-10-05T12:35:54.012Z,19.68
2022-10-05T12:38:28.810Z,19.70
2022-10-05T12:41:07.325Z,19.68
2022-10-05T12:43:44.937Z,19.63
2022-10-05T12:46:24.076Z,19.70
2022-10-05T12:49:06.655Z,19.72
2022-10-05T12:51:40.041Z,19.68
2022-10-05T12:54:18.291Z,19.49
2022-10-05T12:56:55.046Z,19.37
2022-10-05T12:59:39.463Z,19.47
2022-10-05T13:02:20.291Z,19.35
2022-10-05T13:04:57.688Z,19.05
2022-10-05T13:07:50.691Z,19.11
2022-10-05T13:10:28.311Z,19.20
2022-10-05T13:13:12.962Z,18.95
2022-10-05T13:15:51.219Z,18.69
2022-10-05T13:18:27.966Z,18.59
2022-10-05T13:21:04.748Z,18.53
2022-10-05T13:23:55.083Z,18.50
2022-10-05T13:26:31.807Z,18.53
2022-10-05T13:29:05.368Z,18.63
2022-10-05T13:31:45.091Z,18.68
2022-10-05T13:34:24.834Z,18.64
2022-10-05T13:37:07.289Z,18.65
2022-10-05T13:39:51.480Z,18.68
2022-10-05T13:42:26.952Z,18.63
2022-10-05T13:45:00.533Z,18.57
2022-10-05T13:47:32.999Z,18.61
2022-10-05T13:50:03.468Z,18.58
2022-10-05T13:52:45.642Z,18.48
2022-10-05T13:55:28.327Z,18.50
2022-10-05T13:58:03.520Z,18.51
2022-10-05T14:00:33.603Z,18.50
2022-10-05T14:03:02.219Z,18.50
2022-10-05T14:05:32.172Z,18.40
2022-10-05T14:08:18.111Z,18.29
2022-10-05T14:10:48.481Z,18.36
2022-10-05T14:13:26.625Z,18.32
2022-10-05T14:16:04.586Z,18.30
2022-10-05T14:18:34.995Z,18.28
2022-10-05T14:21:07.152Z,18.33
2022-10-05T14:23:37.126Z,18.33
2022-10-05T14:26:19.908Z,18.22
2022-10-05T14:28:58.374Z,18.20
2022-10-05T14:31:35.855Z,18.13
2022-10-05T14:34:31.362Z,18.05
2022-10-05T14:37:02.724Z,18.05
2022-10-05T14:39:35.838Z,17.99
2022-10-05T14:42:17.924Z,17.94
2022-10-05T14:44:47.205Z,17.85
2022-10-05T14:47:23.824Z,17.82
2022-10-05T14:50:14.041Z,17.71
2022-10-05T14:52:51.694Z,17.63
2022-10-05T14:55:44.907Z,17.45
2022-10-05T14:58:23.865Z,17.38
2022-10-05T15:00:57.546Z,17.37
2022-10-05T15:03:40.776Z,17.28
2022-10-05T15:06:21.566Z,17.25
2022-10-05T15:09:16.962Z,17.16
2022-10-05T15:11:52.097Z,17.07
2022-10-05T15:14:23.248Z,16.97
2022-10-05T15:16:58.790Z,16.87
2022-10-05T15:19:36.385Z,16.77
2022-10-05T15:22:24.475Z,16.66
2022-10-05T15:25:01.804Z,16.57
2022-10-05T15:27:39.925Z,16.44
2022-10-05T15:30:12.623Z,16.38
2022-10-05T15:32:55.563Z,16.24
2022-10-05T15:35:53.217Z,16.17
2022-10-05T15:38:25.756Z,16.06
2022-10-05T15:41:08.439Z,15.96
2022-10-05T15:43:48.596Z,15.85
2022-10-05T15:46:19.476Z,15.82
2022-10-05T15:48:55.422Z,15.67
2022-10-05T15:51:37.368Z,15.58
2022-10-05T15:54:29.046Z,15.51
2022-10-05T15:57:03.043Z,15.39
2022-10-05T15:59:38.793Z,15.31
2022-10-05T16:02:15.629Z,15.24
2022-10-05T16:04:52.200Z,15.14
2022-10-05T16:07:43.612Z,15.10
2022-10-05T16:10:17.424Z,14.99
2022-10-05T16:12:55.098Z,14.90
2022-10-05T16:15:33.479Z,14.83
2022-10-05T16:18:21.434Z,14.75
2022-10-05T16:20:53.897Z,14.69
2022-10-05T16:23:34.655Z,14.62
2022-10-05T16:26:17.834Z,14.55
2022-10-05T16:28:57.862Z,14.49
2022-10-05T16:31:32.248Z,14.38
2022-10-05T16:34:09.543Z,14.35
2022-10-05T16:36:49.181Z,14.25
2022-10-05T16:39:23.261Z,14.16
2022-10-05T16:42:01.226Z,14.13
2022-10-05T16:44:40.299Z,14.03
2022-10-05T16:47:33.568Z,13.92
2022-10-05T16:50:09.854Z,13.89
2022-10-05T16:52:42.250Z,13.85
2022-10-05T16:55:15.847Z,13.80
2022-10-05T16:57:51.531Z,13.70
2022-10-05T17:00:23.747Z,13.63
2022-10-05T17:03:15.425Z,13.59
2022-10-05T17:05:59.972Z,13.52
2022-10-05T17:08:50.401Z,13.46
2022-10-05T17:11:31.323Z,13.38
2022-10-05T17:14:21.450Z,13.36
2022-10-05T17:17:05.104Z,13.28
2022-10-05T17:19:45.877Z,13.19
2022-10-05T17:22:23.695Z,13.10
2022-10-05T17:25:00.623Z,13.03
2022-10-05T17:27:35.989Z,12.97
2022-10-05T17:30:39.864Z,12.92
2022-10-05T17:33:26.256Z,12.87
2022-10-05T17:36:17.555Z,12.79
2022-10-05T17:38:49.773Z,12.68
2022-10-05T17:41:21.991Z,12.62
2022-10-05T17:44:32.472Z,12.57
2022-10-05T17:47:01.547Z,12.50
2022-10-05T17:50:14.124Z,12.45
2022-10-05T17:53:02.417Z,12.38
2022-10-05T17:55:45.644Z,12.32
2022-10-05T17:58:31.903Z,12.28
2022-10-05T18:01:14.455Z,12.19
2022-10-05T18:03:43.823Z,12.14
2022-10-05T18:06:33.412Z,12.12
2022-10-05T18:09:34.011Z,12.02
2022-10-05T18:12:26.858Z,12.03
2022-10-05T18:15:03.231Z,12.02
2022-10-05T18:17:46.512Z,11.98
2022-10-05T18:20:30.255Z,11.95
2022-10-05T18:23:34.683Z,11.90
2022-10-05T18:26:26.601Z,11.83
2022-10-05T18:29:14.824Z,11.79
2022-10-05T18:31:54.096Z,11.79
2022-10-05T18:34:32.440Z,11.76
2022-10-05T18:37:13.148Z,11.70
2022-10-05T18:40:02.627Z,11.66
2022-10-05T18:42:40.809Z,11.63
2022-10-05T18:45:23.453Z,11.58
2022-10-05T18:48:05.511Z,11.56
2022-10-05T18:50:41.475Z,11.53
2022-10-05T18:53:23.285Z,11.53
2022-10-05T18:55:57.868Z,11.52
2022-10-05T18:58:37.446Z,11.52
2022-10-05T19:01:39.294Z,11.54
2022-10-05T19:04:22.567Z,11.47
2022-10-05T19:06:59.501Z,11.42
2022-10-05T19:09:45.256Z,11.39
2022-10-05T19:12:21.647Z,11.36
2022-10-05T19:15:00.697Z,11.37
2022-10-05T19:17:45.106Z,11.37
2022-10-05T19:20:22.515Z,11.34
2022-10-05T19:23:05.392Z,11.34
2022-10-05T19:25:38.943Z,11.39
2022-10-05T19:28:20.711Z,11.35
2022-10-05T19:31:14.683Z,11.44
2022-10-05T19:33:56.686Z,11.48
2022-10-05T19:36:40.968Z,11.38
2022-10-05T19:39:13.652Z,11.36
2022-10-05T19:41:47.839Z,11.37
2022-10-05T19:44:26.926Z,11.38
2022-10-05T19:47:02.708Z,11.34
2022-10-05T19:49:38.781Z,11.35
2022-10-05T19:52:14.185Z,11.32
2022-10-05T19:54:43.154Z,11.28
2022-10-05T19:57:18.100Z,11.30
2022-10-05T19:59:47.766Z,11.24
2022-10-05T20:02:18.694Z,11.23
2022-10-05T20:04:49.668Z,11.29
2022-10-05T20:07:21.715Z,11.26
2022-10-05T20:09:58.181Z,11.15
2022-10-05T20:12:50.894Z,11.15
2022-10-05T20:15:39.142Z,11.14
2022-10-05T20:18:58.227Z,11.07
2022-10-05T20:21:41.396Z,11.12
2022-10-05T20:24:11.383Z,11.16
2022-10-05T20:26:59.250Z,11.08
2022-10-05T20:29:27.204Z,11.00
2022-10-05T20:31:55.294Z,10.96
2022-10-05T20:34:25.016Z,10.94
2022-10-05T20:36:53.231Z,10.88
2022-10-05T20:39:21.521Z,10.89
2022-10-05T20:41:49.703Z,10.93
2022-10-05T20:44:17.806Z,10.90
2022-10-05T20:46:46.668Z,10.85
2022-10-05T20:49:14.703Z,10.82
2022-10-05T20:51:44.288Z,10.76
2022-10-05T20:54:12.283Z,10.73
2022-10-05T20:56:42.290Z,10.70
2022-10-05T20:59:10.244Z,10.72
2022-10-05T21:01:38.214Z,10.65
2022-10-05T21:04:07.091Z,10.59
2022-10-05T21:06:35.090Z,10.51
2022-10-05T21:09:04.545Z,10.46
2022-10-05T21:11:32.523Z,10.49
2022-10-05T21:14:05.448Z,10.39
2022-10-05T21:16:34.185Z,10.45
2022-10-05T21:19:03.466Z,10.36
2022-10-05T21:21:31.506Z,10.36
2022-10-05T21:24:00.426Z,10.37
2022-10-05T21:26:30.310Z,10.36
2022-10-05T21:28:59.923Z,10.34
2022-10-05T21:31:28.805Z,10.36
2022-10-05T21:33:57.113Z,10.37
2022-10-05T21:36:25.268Z,10.34
2022-10-05T21:38:55.080Z,10.39
2022-10-05T21:41:23.735Z,10.35
2022-10-05T21:43:53.167Z,10.28
2022-10-05T21:46:25.897Z,10.26
2022-10-05T21:48:54.474Z,10.25
2022-10-05T21:51:25.036Z,10.26
2022-10-05T21:53:57.369Z,10.17
2022-10-05T21:56:30.778Z,10.10
2022-10-05T21:59:02.286Z,9.98
2022-10-05T22:01:30.330Z,9.92
2022-10-05T22:03:58.420Z,9.94
2022-10-05T22:06:26.405Z,9.89
2022-10-05T22:08:54.369Z,9.87
2022-10-05T22:11:22.395Z,9.82
2022-10-05T22:13:52.710Z,9.80
2022-10-05T22:16:24.828Z,9.80
2022-10-05T22:18:56.086Z,9.87
2022-10-05T22:21:24.088Z,9.94
2022-10-05T22:23:52.052Z,9.93
2022-10-05T22:26:23.867Z,9.93
2022-10-05T22:28:55.210Z,9.92
2022-10-05T22:31:25.086Z,9.94
2022-10-05T22:33:55.862Z,9.92
2022-10-05T22:36:24.121Z,9.94
2022-10-05T22:38:52.222Z,10.00
2022-10-05T22:41:20.597Z,9.94
2022-10-05T22:43:50.887Z,9.91
2022-10-05T22:46:19.994Z,9.84
2022-10-05T22:48:49.409Z,9.81
2022-10-05T22:51:17.404Z,9.76
2022-10-05T22:53:45.374Z,9.64
2022-10-05T22:56:15.291Z,9.62
2022-10-05T22:58:44.504Z,9.62
2022-10-05T23:01:15.345Z,9.61
2022-10-05T23:03:43.762Z,9.62
2022-10-05T23:06:15.178Z,9.52
2022-10-05T23:08:43.855Z,9.52
2022-10-05T23:11:13.728Z,9.52
2022-10-05T23:13:42.161Z,9.50
2022-10-05T23:16:11.792Z,9.50
2022-10-05T23:18:40.324Z,9.50
2022-10-05T23:21:09.847Z,9.53
2022-10-05T23:23:41.047Z,9.56
2022-10-05T23:26:10.925Z,9.58
2022-10-05T23:28:40.781Z,9.59
2022-10-05T23:31:10.208Z,9.65
2022-10-05T23:33:38.499Z,9.67
2022-10-05T23:36:08.280Z,9.69
2022-10-05T23:38:37.690Z,9.68
2022-10-05T23:41:08.818Z,9.64
2022-10-05T23:43:37.478Z,9.59
2022-10-05T23:46:06.863Z,9.56
2022-10-05T23:48:38.064Z,9.59
2022-10-05T23:51:07.575Z,9.57
2022-10-05T23:53:35.562Z,9.51
2022-10-05T23:56:03.884Z,9.55
2022-10-05T23:58:33.325Z,9.50
